createdAt,value
2019-04-14T00:01:28.378Z,95.50
2019-04-14T00:06:35.185Z,95.40
2019-04-14T00:11:41.673Z,95.20
2019-04-14T00:16:46.797Z,94.80
2019-04-14T00:21:52.226Z,94.90
2019-04-14T00:26:57.381Z,95.30
2019-04-14T00:32:03.068Z,95.20
2019-04-14T00:37:10.211Z,94.90
2019-04-14T00:42:16.942Z,95.20
2019-04-14T00:47:24.627Z,95.30
2019-04-14T00:52:29.873Z,95.30
2019-04-14T00:57:35.526Z,95.10
2019-04-14T01:03:19.934Z,94.90
2019-04-14T01:08:27.044Z,95.00
2019-04-14T01:13:33.291Z,95.20
2019-04-14T01:18:38.682Z,94.90
2019-04-14T01:23:45.506Z,94.80
2019-04-14T01:28:51.048Z,95.50
2019-04-14T01:34:00.460Z,95.00
2019-04-14T01:39:46.037Z,94.50
2019-04-14T01:44:52.538Z,94.80
2019-04-14T01:49:57.735Z,94.60
2019-04-14T01:55:04.807Z,94.50
2019-04-14T02:00:12.017Z,94.80
2019-04-14T02:05:19.234Z,94.50
2019-04-14T02:11:00.904Z,94.40
2019-04-14T02:16:18.739Z,94.80
2019-04-14T02:21:49.886Z,94.50
2019-04-14T02:26:54.957Z,94.60
2019-04-14T02:33:05.355Z,94.20
2019-04-14T02:38:14.277Z,94.20
2019-04-14T02:43:57.964Z,94.20
2019-04-14T02:48:58.753Z,93.80
2019-04-14T02:54:51.231Z,93.90
2019-04-14T02:59:52.936Z,94.20
2019-04-14T03:05:37.203Z,94.10
2019-04-14T03:10:42.154Z,93.60
2019-04-14T03:15:48.196Z,93.70
2019-04-14T03:20:59.066Z,93.40
2019-04-14T03:26:00.963Z,93.00
2019-04-14T03:37:43.020Z,93.50
2019-04-14T03:41:37.256Z,93.10
2019-04-14T03:56:57.918Z,92.50
2019-04-14T04:02:03.218Z,92.00
2019-04-14T04:07:10.221Z,91.90
2019-04-14T04:12:51.786Z,91.80
2019-04-14T04:17:58.384Z,91.70
2019-04-14T04:23:07.392Z,91.40
2019-04-14T04:28:51.790Z,91.40
2019-04-14T04:34:01.076Z,90.60
2019-04-14T04:39:47.867Z,90.90
2019-04-14T04:44:53.274Z,91.20
2019-04-14T04:49:58.373Z,90.80
2019-04-14T04:55:04.607Z,91.20
2019-04-14T05:00:11.430Z,91.40
2019-04-14T05:05:20.817Z,92.00
2019-04-14T05:11:05.401Z,91.60
2019-04-14T05:16:10.766Z,91.80
2019-04-14T05:21:16.995Z,91.80
2019-04-14T05:26:22.652Z,91.50
2019-04-14T05:31:29.074Z,91.40
2019-04-14T05:36:34.623Z,91.40
2019-04-14T05:42:20.243Z,91.20
2019-04-14T05:47:24.031Z,91.30
2019-04-14T05:53:06.779Z,91.00
2019-04-14T05:58:12.178Z,90.60
2019-04-14T06:03:17.520Z,90.20
2019-04-14T06:08:27.037Z,90.00
2019-04-14T06:14:13.137Z,89.00
2019-04-14T06:19:18.302Z,88.40
2019-04-14T06:24:23.222Z,88.50
2019-04-14T06:29:28.956Z,87.20
2019-04-14T06:35:13.289Z,87.60
2019-04-14T06:40:19.756Z,85.90
2019-04-14T06:46:05.193Z,87.90
2019-04-14T06:51:10.165Z,87.70
2019-04-14T06:56:15.415Z,85.10
2019-04-14T07:01:27.316Z,83.70
2019-04-14T07:06:34.827Z,83.60
2019-04-14T07:11:39.777Z,81.40
2019-04-14T07:17:25.859Z,78.00
2019-04-14T07:35:17.324Z,74.50
2019-04-14T07:40:25.982Z,73.90
2019-04-14T07:46:10.135Z,71.70
2019-04-14T07:51:17.623Z,71.50
2019-04-14T07:57:01.542Z,69.80
2019-04-14T08:02:10.034Z,66.70
2019-04-14T08:07:55.385Z,65.10
2019-04-14T08:13:02.003Z,63.90
2019-04-14T08:18:23.359Z,57.70
2019-04-14T08:23:28.233Z,58.20
2019-04-14T08:28:33.123Z,56.30
2019-04-14T08:33:58.266Z,54.60
2019-04-14T08:39:03.496Z,51.90
2019-04-14T08:44:10.349Z,46.90
2019-04-14T08:49:54.168Z,48.00
2019-04-14T08:55:00.673Z,46.40
2019-04-14T09:00:08.366Z,45.10
2019-04-14T09:05:14.926Z,40.60
2019-04-14T09:10:21.428Z,39.20
2019-04-14T09:16:04.156Z,40.40
2019-04-14T09:21:09.067Z,40.50
2019-04-14T09:26:14.165Z,41.30
2019-04-14T09:31:57.399Z,42.50
2019-04-14T09:37:02.455Z,41.10
2019-04-14T09:42:07.642Z,39.30
2019-04-14T09:47:49.092Z,39.20
2019-04-14T09:52:56.019Z,39.30
2019-04-14T09:58:00.773Z,37.70
2019-04-14T10:03:05.845Z,36.20
2019-04-14T10:08:11.144Z,34.60
2019-04-14T10:13:16.013Z,32.80
2019-04-14T10:18:20.929Z,30.10
2019-04-14T10:23:25.835Z,28.70
2019-04-14T10:28:30.761Z,28.40
2019-04-14T10:33:35.536Z,27.70
2019-04-14T10:38:40.696Z,26.40
2019-04-14T10:43:45.528Z,23.50
2019-04-14T10:48:50.414Z,24.80
2019-04-14T10:53:55.370Z,25.40
2019-04-14T10:59:00.244Z,24.10
2019-04-14T11:04:07.912Z,23.00
2019-04-14T11:09:13.319Z,20.30
2019-04-14T11:14:18.170Z,17.90
2019-04-14T11:19:23.028Z,17.10
2019-04-14T11:24:28.176Z,16.00
2019-04-14T11:29:33.003Z,16.50
2019-04-14T11:34:39.737Z,15.10
2019-04-14T11:39:46.487Z,13.80
2019-04-14T11:44:51.343Z,14.40
2019-04-14T11:49:56.671Z,14.60
2019-04-14T11:55:01.409Z,14.20
2019-04-14T12:00:09.091Z,13.50
2019-04-14T12:05:15.631Z,12.40
2019-04-14T12:10:22.218Z,11.40
2019-04-14T12:15:28.197Z,12.60
2019-04-14T12:20:33.362Z,11.00
2019-04-14T12:25:38.612Z,11.60
2019-04-14T12:30:44.309Z,11.10
2019-04-14T12:35:50.274Z,11.50
2019-04-14T12:40:57.595Z,11.70
2019-04-14T12:46:06.052Z,11.00
2019-04-14T12:51:11.903Z,11.00
2019-04-14T12:56:18.517Z,11.50
2019-04-14T13:01:25.022Z,10.50
2019-04-14T13:06:30.855Z,10.50
2019-04-14T13:11:36.960Z,10.60
2019-04-14T13:16:41.920Z,10.00
2019-04-14T13:21:46.788Z,10.10
2019-04-14T13:26:51.764Z,10.10
2019-04-14T13:31:56.695Z,9.70
2019-04-14T13:37:01.498Z,10.00
2019-04-14T13:42:06.992Z,9.40
2019-04-14T13:47:12.103Z,9.80
2019-04-14T13:52:16.996Z,10.70
2019-04-14T13:57:21.816Z,10.10
2019-04-14T14:02:27.759Z,9.90
2019-04-14T14:07:32.647Z,10.30
2019-04-14T14:12:38.997Z,10.80
2019-04-14T14:17:45.392Z,9.70
2019-04-14T14:22:59.341Z,10.70
2019-04-14T14:27:58.526Z,10.60
2019-04-14T14:33:03.582Z,11.00
2019-04-14T14:38:08.325Z,11.30
2019-04-14T14:43:13.160Z,11.70
2019-04-14T14:48:19.674Z,11.20
2019-04-14T14:53:24.565Z,10.80
2019-04-14T14:58:30.464Z,10.20
2019-04-14T15:04:12.013Z,10.50
2019-04-14T15:09:16.917Z,11.60
2019-04-14T15:14:21.824Z,11.80
2019-04-14T15:19:26.619Z,11.60
2019-04-14T15:24:31.348Z,12.80
2019-04-14T15:29:36.168Z,12.70
2019-04-14T15:34:41.063Z,12.90
2019-04-14T15:39:45.888Z,12.30
2019-04-14T15:44:50.792Z,11.20
2019-04-14T15:49:55.598Z,12.10
2019-04-14T15:55:00.378Z,12.60
2019-04-14T16:00:13.646Z,12.70
2019-04-14T16:05:21.982Z,12.30
2019-04-14T16:11:03.195Z,13.20
2019-04-14T16:16:19.162Z,13.40
2019-04-14T16:21:24.893Z,13.50
2019-04-14T16:26:33.047Z,14.40
2019-04-14T16:31:49.134Z,14.70
2019-04-14T16:36:54.909Z,14.90
2019-04-14T16:41:59.803Z,16.10
2019-04-14T16:47:06.341Z,16.40
2019-04-14T16:52:10.991Z,17.10
2019-04-14T16:57:17.462Z,18.40
2019-04-14T17:02:22.244Z,19.50
2019-04-14T17:07:28.402Z,20.60
2019-04-14T17:12:33.325Z,23.10
2019-04-14T17:17:37.943Z,25.10
2019-04-14T17:22:44.418Z,24.30
2019-04-14T17:27:51.078Z,26.60
2019-04-14T17:32:58.041Z,27.80
2019-04-14T17:38:04.629Z,27.70
2019-04-14T17:43:11.094Z,29.30
2019-04-14T17:48:17.522Z,29.70
2019-04-14T17:53:24.161Z,29.90
2019-04-14T17:58:30.797Z,31.20
2019-04-14T18:03:38.608Z,32.40
2019-04-14T18:08:45.158Z,33.90
2019-04-14T18:13:51.508Z,34.30
2019-04-14T18:18:57.847Z,35.20
2019-04-14T18:24:03.381Z,35.30
2019-04-14T18:29:10.267Z,36.20
2019-04-14T18:34:16.805Z,37.40
2019-04-14T18:39:22.624Z,37.20
2019-04-14T18:44:29.290Z,38.10
2019-04-14T18:49:36.271Z,38.90
2019-04-14T18:54:54.028Z,39.00
2019-04-14T18:59:50.989Z,39.30
2019-04-14T19:04:55.920Z,40.20
2019-04-14T19:10:00.737Z,39.80
2019-04-14T19:15:08.559Z,40.20
2019-04-14T19:20:15.635Z,40.90
2019-04-14T19:25:20.491Z,40.30
2019-04-14T19:30:25.706Z,41.00
2019-04-14T19:35:30.808Z,41.00
2019-04-14T19:40:36.022Z,41.90
2019-04-14T19:45:42.412Z,42.50
2019-04-14T19:50:47.425Z,43.60
2019-04-14T19:55:52.747Z,45.30
2019-04-14T20:00:57.869Z,45.60
2019-04-14T20:06:02.792Z,46.40
2019-04-14T20:11:07.767Z,47.90
2019-04-14T20:16:14.818Z,48.10
2019-04-14T20:21:21.534Z,49.00
2019-04-14T20:26:28.037Z,49.10
2019-04-14T20:31:32.724Z,50.40
2019-04-14T20:36:38.147Z,50.50
2019-04-14T20:41:43.400Z,50.80
2019-04-14T20:46:48.164Z,51.50
2019-04-14T20:51:53.140Z,51.20
2019-04-14T20:57:34.484Z,52.00
2019-04-14T21:02:41.956Z,52.60
2019-04-14T21:07:48.628Z,53.00
2019-04-14T21:12:55.201Z,53.40
2019-04-14T21:18:01.698Z,53.70
2019-04-14T21:23:06.670Z,54.10
2019-04-14T21:28:13.343Z,54.50
2019-04-14T21:33:21.111Z,54.40
2019-04-14T21:38:27.932Z,55.70
2019-04-14T21:43:33.223Z,55.80
2019-04-14T21:48:38.205Z,55.70
2019-04-14T21:53:44.507Z,56.30
2019-04-14T21:58:51.149Z,56.90
2019-04-14T22:03:58.141Z,57.40
2019-04-14T22:09:04.725Z,58.00
2019-04-14T22:14:11.165Z,58.20
2019-04-14T22:19:16.144Z,58.50
2019-04-14T22:24:22.063Z,59.20
2019-04-14T22:29:27.104Z,59.70
2019-04-14T22:34:32.039Z,60.30
2019-04-14T22:39:39.230Z,61.10
2019-04-14T22:44:43.485Z,61.70
2019-04-14T22:49:48.415Z,62.40
2019-04-14T22:54:53.309Z,63.20
2019-04-14T22:59:58.101Z,63.40
2019-04-14T23:05:04.463Z,64.00
2019-04-14T23:10:11.010Z,64.70
2019-04-14T23:15:17.428Z,64.80
2019-04-14T23:20:23.909Z,65.80
2019-04-14T23:25:28.915Z,66.60
2019-04-14T23:30:33.771Z,67.10
2019-04-14T23:35:38.610Z,67.70
2019-04-14T23:40:43.307Z,68.20
2019-04-14T23:45:48.058Z,68.90
2019-04-14T23:50:53.069Z,69.00
2019-04-14T23:55:58.081Z,69.80
